CheckWX is a tool to help pilots better visualize weather data.  It is not intended as a substitute for an official pre-flight weather briefing.

16:27:48 UTC

UIII METAR
Irkutsk Airport
Irkutsk, Russian Federation
Current

28 mins ago

UIII 211600Z 14002MPS CAVOK M08/M16 Q1018 R30/810555 NOSIG RMK QFE719/0959
Observed
Feb-21 @ 16:00 UTC
Wind
  • 140° at 4 KTS
Visibility
10,000+ meters
Flight Rules
VFR
Cloud Levels
  • Clear skies
Temperature
-8°C / 18°F
Dewpoint
-16°C / 3°F
Humidity
53%
Altimeter
30.06" Hg
Pressure
1017.92 hPa
Previous

58 mins ago

UIII 211530Z 16001MPS CAVOK M08/M16 Q1019 R30/810555 NOSIG RMK QFE719/0959
Observed
Feb-21 @ 15:30 UTC
Wind
  • 160° at 2 KTS
Visibility
10,000+ meters
Flight Rules
VFR
Cloud Levels
  • Clear skies
Temperature
-8°C / 18°F
Dewpoint
-16°C / 3°F
Humidity
53%
Altimeter
30.09" Hg
Pressure
1018.92 hPa
Previous

1 hour ago

UIII 211500Z VRB01MPS CAVOK M07/M16 Q1019 R30/810555 NOSIG RMK QFE719/0959
Observed
Feb-21 @ 15:00 UTC
Wind
  • Variable at 2 KTS
Visibility
10,000+ meters
Flight Rules
VFR
Cloud Levels
  • Clear skies
Temperature
-7°C / 19°F
Dewpoint
-16°C / 3°F
Humidity
49%
Altimeter
30.09" Hg
Pressure
1018.92 hPa